sensor_id;sensor_type;location;lat;lon;timestamp;temperature;humidity
11095;DHT22;5601;44.490;11.400;2022-07-01T00:00:53;23.60;85.20
11095;DHT22;5601;44.490;11.400;2022-07-01T00:03:20;23.70;86.00
11095;DHT22;5601;44.490;11.400;2022-07-01T00:05:48;23.70;86.80
11095;DHT22;5601;44.490;11.400;2022-07-01T00:08:15;23.60;86.70
11095;DHT22;5601;44.490;11.400;2022-07-01T00:10:42;23.60;83.50
11095;DHT22;5601;44.490;11.400;2022-07-01T00:13:12;23.60;84.30
11095;DHT22;5601;44.490;11.400;2022-07-01T00:15:53;23.70;83.50
11095;DHT22;5601;44.490;11.400;2022-07-01T00:18:20;23.70;84.20
11095;DHT22;5601;44.490;11.400;2022-07-01T00:20:54;23.70;83.90
11095;DHT22;5601;44.490;11.400;2022-07-01T00:23:22;23.60;83.20
11095;DHT22;5601;44.490;11.400;2022-07-01T00:25:49;23.70;82.10
11095;DHT22;5601;44.490;11.400;2022-07-01T00:28:16;23.70;81.60
11095;DHT22;5601;44.490;11.400;2022-07-01T00:30:43;23.80;81.70
11095;DHT22;5601;44.490;11.400;2022-07-01T00:33:12;23.90;81.60
11095;DHT22;5601;44.490;11.400;2022-07-01T00:35:39;23.90;81.30
11095;DHT22;5601;44.490;11.400;2022-07-01T00:38:07;23.80;81.60
11095;DHT22;5601;44.490;11.400;2022-07-01T00:40:34;23.60;82.20
11095;DHT22;5601;44.490;11.400;2022-07-01T00:43:01;23.50;82.80
11095;DHT22;5601;44.490;11.400;2022-07-01T00:45:28;23.40;83.30
11095;DHT22;5601;44.490;11.400;2022-07-01T00:47:55;23.30;83.20
11095;DHT22;5601;44.490;11.400;2022-07-01T00:50:22;23.20;82.30
11095;DHT22;5601;44.490;11.400;2022-07-01T00:52:50;23.30;81.90
11095;DHT22;5601;44.490;11.400;2022-07-01T00:55:18;23.30;82.00
11095;DHT22;5601;44.490;11.400;2022-07-01T00:57:45;23.30;82.10
11095;DHT22;5601;44.490;11.400;2022-07-01T01:00:14;23.30;82.00
11095;DHT22;5601;44.490;11.400;2022-07-01T01:02:42;23.30;82.40
11095;DHT22;5601;44.490;11.400;2022-07-01T01:05:09;23.20;82.40
11095;DHT22;5601;44.490;11.400;2022-07-01T01:07:36;23.30;82.80
11095;DHT22;5601;44.490;11.400;2022-07-01T01:10:04;23.20;82.70
11095;DHT22;5601;44.490;11.400;2022-07-01T01:12:33;23.20;82.00
11095;DHT22;5601;44.490;11.400;2022-07-01T01:15:00;23.30;81.90
11095;DHT22;5601;44.490;11.400;2022-07-01T01:17:28;23.30;81.70
11095;DHT22;5601;44.490;11.400;2022-07-01T01:19:57;23.30;81.60
11095;DHT22;5601;44.490;11.400;2022-07-01T01:22:26;23.20;81.40
11095;DHT22;5601;44.490;11.400;2022-07-01T01:24:57;23.20;81.60
11095;DHT22;5601;44.490;11.400;2022-07-01T01:27:27;23.20;81.10
11095;DHT22;5601;44.490;11.400;2022-07-01T01:29:55;23.20;81.30
11095;DHT22;5601;44.490;11.400;2022-07-01T01:32:22;23.20;81.50
11095;DHT22;5601;44.490;11.400;2022-07-01T01:34:49;23.10;81.80
11095;DHT22;5601;44.490;11.400;2022-07-01T01:37:16;23.10;82.10
11095;DHT22;5601;44.490;11.400;2022-07-01T01:39:45;23.10;83.20
11095;DHT22;5601;44.490;11.400;2022-07-01T01:42:12;23.00;82.60
11095;DHT22;5601;44.490;11.400;2022-07-01T01:44:39;22.90;83.00
11095;DHT22;5601;44.490;11.400;2022-07-01T01:47:06;22.90;83.30
11095;DHT22;5601;44.490;11.400;2022-07-01T01:49:33;22.80;83.90
11095;DHT22;5601;44.490;11.400;2022-07-01T01:52:00;22.70;84.80
11095;DHT22;5601;44.490;11.400;2022-07-01T01:54:28;22.60;85.00
11095;DHT22;5601;44.490;11.400;2022-07-01T01:56:56;22.60;85.00
11095;DHT22;5601;44.490;11.400;2022-07-01T01:59:23;22.50;85.30
11095;DHT22;5601;44.490;11.400;2022-07-01T02:01:50;22.40;85.40
11095;DHT22;5601;44.490;11.400;2022-07-01T02:04:17;22.40;85.40
11095;DHT22;5601;44.490;11.400;2022-07-01T02:06:44;22.40;85.70
11095;DHT22;5601;44.490;11.400;2022-07-01T02:09:11;22.40;85.30
11095;DHT22;5601;44.490;11.400;2022-07-01T02:11:39;22.40;85.40
11095;DHT22;5601;44.490;11.400;2022-07-01T02:14:07;22.50;85.30
11095;DHT22;5601;44.490;11.400;2022-07-01T02:16:34;22.60;85.50
11095;DHT22;5601;44.490;11.400;2022-07-01T02:19:01;22.60;85.20
11095;DHT22;5601;44.490;11.400;2022-07-01T02:21:29;22.60;83.50
11095;DHT22;5601;44.490;11.400;2022-07-01T02:23:56;22.70;83.10
11095;DHT22;5601;44.490;11.400;2022-07-01T02:26:23;22.80;83.50
11095;DHT22;5601;44.490;11.400;2022-07-01T02:28:50;22.90;83.10
11095;DHT22;5601;44.490;11.400;2022-07-01T02:31:18;22.90;83.40
11095;DHT22;5601;44.490;11.400;2022-07-01T02:33:46;22.80;83.60
11095;DHT22;5601;44.490;11.400;2022-07-01T02:36:13;22.80;83.80
11095;DHT22;5601;44.490;11.400;2022-07-01T02:38:40;22.80;84.10
11095;DHT22;5601;44.490;11.400;2022-07-01T02:41:07;22.80;83.90
11095;DHT22;5601;44.490;11.400;2022-07-01T02:43:35;22.90;84.60
11095;DHT22;5601;44.490;11.400;2022-07-01T02:46:02;22.90;83.80
11095;DHT22;5601;44.490;11.400;2022-07-01T02:48:31;23.00;83.70
11095;DHT22;5601;44.490;11.400;2022-07-01T02:50:58;23.00;83.50
11095;DHT22;5601;44.490;11.400;2022-07-01T02:53:25;22.90;83.80
11095;DHT22;5601;44.490;11.400;2022-07-01T02:55:52;22.90;84.00
11095;DHT22;5601;44.490;11.400;2022-07-01T02:58:19;22.80;84.20
11095;DHT22;5601;44.490;11.400;2022-07-01T03:00:46;22.80;84.10
11095;DHT22;5601;44.490;11.400;2022-07-01T03:03:14;22.90;83.80
11095;DHT22;5601;44.490;11.400;2022-07-01T03:05:43;22.90;83.60
11095;DHT22;5601;44.490;11.400;2022-07-01T03:08:10;23.00;83.70
11095;DHT22;5601;44.490;11.400;2022-07-01T03:10:37;23.00;83.70
11095;DHT22;5601;44.490;11.400;2022-07-01T03:13:04;23.00;84.00
11095;DHT22;5601;44.490;11.400;2022-07-01T03:15:31;23.00;85.10
11095;DHT22;5601;44.490;11.400;2022-07-01T03:17:58;22.90;85.00
11095;DHT22;5601;44.490;11.400;2022-07-01T03:20:25;22.90;85.40
11095;DHT22;5601;44.490;11.400;2022-07-01T03:22:53;22.80;86.50
11095;DHT22;5601;44.490;11.400;2022-07-01T03:25:20;22.80;86.00
11095;DHT22;5601;44.490;11.400;2022-07-01T03:27:54;22.80;86.20
11095;DHT22;5601;44.490;11.400;2022-07-01T03:30:32;22.70;86.40
11095;DHT22;5601;44.490;11.400;2022-07-01T03:33:00;22.70;86.80
11095;DHT22;5601;44.490;11.400;2022-07-01T03:35:27;22.70;87.10
11095;DHT22;5601;44.490;11.400;2022-07-01T03:38:06;22.60;87.00
11095;DHT22;5601;44.490;11.400;2022-07-01T03:40:34;22.60;87.20
11095;DHT22;5601;44.490;11.400;2022-07-01T03:43:01;22.60;87.20
11095;DHT22;5601;44.490;11.400;2022-07-01T03:45:28;22.50;87.00
11095;DHT22;5601;44.490;11.400;2022-07-01T03:47:55;22.40;87.10
11095;DHT22;5601;44.490;11.400;2022-07-01T03:50:25;22.40;87.10
11095;DHT22;5601;44.490;11.400;2022-07-01T03:52:52;22.40;86.80
11095;DHT22;5601;44.490;11.400;2022-07-01T10:00:38;32.50;81.70
11095;DHT22;5601;44.490;11.400;2022-07-01T10:03:07;32.60;82.50
11095;DHT22;5601;44.490;11.400;2022-07-01T10:05:39;32.70;83.40
11095;DHT22;5601;44.490;11.400;2022-07-01T10:08:26;32.70;83.60
11095;DHT22;5601;44.490;11.400;2022-07-01T10:11:06;32.50;83.60
11095;DHT22;5601;44.490;11.400;2022-07-01T10:13:38;32.30;84.10
11095;DHT22;5601;44.490;11.400;2022-07-01T10:16:09;32.20;84.30
11095;DHT22;5601;44.490;11.400;2022-07-01T10:18:37;32.20;83.70
11095;DHT22;5601;44.490;11.400;2022-07-01T10:21:05;32.10;83.60
11095;DHT22;5601;44.490;11.400;2022-07-01T10:23:37;32.20;84.90
11095;DHT22;5601;44.490;11.400;2022-07-01T10:26:05;32.20;84.30
11095;DHT22;5601;44.490;11.400;2022-07-01T10:28:41;32.20;83.30
11095;DHT22;5601;44.490;11.400;2022-07-01T10:31:11;32.00;83.60
11095;DHT22;5601;44.490;11.400;2022-07-01T10:33:44;31.90;84.20
11095;DHT22;5601;44.490;11.400;2022-07-01T10:36:16;32.10;84.70
11095;DHT22;5601;44.490;11.400;2022-07-01T10:39:15;32.10;83.70
11095;DHT22;5601;44.490;11.400;2022-07-01T10:42:01;32.30;84.50
11095;DHT22;5601;44.490;11.400;2022-07-01T10:44:31;32.50;83.60
11095;DHT22;5601;44.490;11.400;2022-07-01T10:47:05;32.70;82.90
11095;DHT22;5601;44.490;11.400;2022-07-01T10:49:58;32.90;83.50
11095;DHT22;5601;44.490;11.400;2022-07-01T10:52:26;33.10;82.40
11095;DHT22;5601;44.490;11.400;2022-07-01T10:54:55;33.10;82.40
11095;DHT22;5601;44.490;11.400;2022-07-01T10:57:31;33.00;82.40
11095;DHT22;5601;44.490;11.400;2022-07-01T11:00:25;32.60;82.80
11095;DHT22;5601;44.490;11.400;2022-07-01T11:03:08;32.60;82.40
11095;DHT22;5601;44.490;11.400;2022-07-01T11:05:36;32.70;83.50
11095;DHT22;5601;44.490;11.400;2022-07-01T11:08:05;32.90;83.20
11095;DHT22;5601;44.490;11.400;2022-07-01T11:10:33;33.00;83.20
11095;DHT22;5601;44.490;11.400;2022-07-01T11:13:01;33.00;83.70
11095;DHT22;5601;44.490;11.400;2022-07-01T11:15:30;33.10;82.90
11095;DHT22;5601;44.490;11.400;2022-07-01T11:17:58;33.00;83.00
11095;DHT22;5601;44.490;11.400;2022-07-01T11:20:30;33.20;83.30
11095;DHT22;5601;44.490;11.400;2022-07-01T11:22:58;33.20;83.10
11095;DHT22;5601;44.490;11.400;2022-07-01T11:25:26;33.40;82.90
11095;DHT22;5601;44.490;11.400;2022-07-01T11:27:53;33.30;82.50
11095;DHT22;5601;44.490;11.400;2022-07-01T11:30:22;33.30;83.80
11095;DHT22;5601;44.490;11.400;2022-07-01T11:32:51;33.40;82.50
11095;DHT22;5601;44.490;11.400;2022-07-01T11:35:22;33.50;81.50
11095;DHT22;5601;44.490;11.400;2022-07-01T11:38:10;33.40;82.40
11095;DHT22;5601;44.490;11.400;2022-07-01T11:40:56;33.60;81.60
11095;DHT22;5601;44.490;11.400;2022-07-01T11:43:25;33.70;82.40
11095;DHT22;5601;44.490;11.400;2022-07-01T11:45:53;33.70;82.50
11095;DHT22;5601;44.490;11.400;2022-07-01T11:48:34;33.80;82.30
11095;DHT22;5601;44.490;11.400;2022-07-01T11:51:09;33.90;81.10
11095;DHT22;5601;44.490;11.400;2022-07-01T11:53:40;33.90;81.70
11095;DHT22;5601;44.490;11.400;2022-07-01T11:56:08;34.00;79.50
11095;DHT22;5601;44.490;11.400;2022-07-01T11:58:47;33.90;79.80
11095;DHT22;5601;44.490;11.400;2022-07-01T12:01:22;33.90;79.50
11095;DHT22;5601;44.490;11.400;2022-07-01T12:03:50;33.80;79.10
11095;DHT22;5601;44.490;11.400;2022-07-01T12:06:18;33.90;79.20
11095;DHT22;5601;44.490;11.400;2022-07-01T12:08:50;33.90;78.50
11095;DHT22;5601;44.490;11.400;2022-07-01T12:11:19;33.80;79.10
11095;DHT22;5601;44.490;11.400;2022-07-01T12:13:48;33.70;79.60
11095;DHT22;5601;44.490;11.400;2022-07-01T12:16:16;33.70;79.40
11095;DHT22;5601;44.490;11.400;2022-07-01T12:18:57;33.50;79.60
11095;DHT22;5601;44.490;11.400;2022-07-01T12:21:26;33.60;79.60
11095;DHT22;5601;44.490;11.400;2022-07-01T12:24:13;33.80;79.60
11095;DHT22;5601;44.490;11.400;2022-07-01T12:26:49;33.70;79.30
11095;DHT22;5601;44.490;11.400;2022-07-01T12:29:18;33.80;79.80
11095;DHT22;5601;44.490;11.400;2022-07-01T12:31:55;34.00;79.20
11095;DHT22;5601;44.490;11.400;2022-07-01T12:34:22;34.00;79.00
11095;DHT22;5601;44.490;11.400;2022-07-01T12:36:50;34.10;79.80
11095;DHT22;5601;44.490;11.400;2022-07-01T12:39:19;34.20;80.50
11095;DHT22;5601;44.490;11.400;2022-07-01T12:41:50;34.30;80.30
11095;DHT22;5601;44.490;11.400;2022-07-01T12:44:22;34.20;80.50
11095;DHT22;5601;44.490;11.400;2022-07-01T12:46:51;34.00;81.30
11095;DHT22;5601;44.490;11.400;2022-07-01T12:49:20;34.00;81.10
11095;DHT22;5601;44.490;11.400;2022-07-01T12:51:48;34.20;82.00
11095;DHT22;5601;44.490;11.400;2022-07-01T12:54:33;34.50;81.00
11095;DHT22;5601;44.490;11.400;2022-07-01T12:57:02;34.50;80.40
11095;DHT22;5601;44.490;11.400;2022-07-01T12:59:30;34.50;81.90
11095;DHT22;5601;44.490;11.400;2022-07-01T13:01:59;34.50;80.20
11095;DHT22;5601;44.490;11.400;2022-07-01T13:04:28;34.40;80.50
11095;DHT22;5601;44.490;11.400;2022-07-01T13:06:57;34.40;80.20
11095;DHT22;5601;44.490;11.400;2022-07-01T13:09:25;34.40;81.00
11095;DHT22;5601;44.490;11.400;2022-07-01T13:11:53;34.60;80.60
11095;DHT22;5601;44.490;11.400;2022-07-01T13:14:23;34.70;80.40
11095;DHT22;5601;44.490;11.400;2022-07-01T13:16:50;34.80;80.50
11095;DHT22;5601;44.490;11.400;2022-07-01T13:19:18;34.90;80.40
11095;DHT22;5601;44.490;11.400;2022-07-01T13:21:45;35.00;80.50
11095;DHT22;5601;44.490;11.400;2022-07-01T13:24:12;35.00;80.30
11095;DHT22;5601;44.490;11.400;2022-07-01T13:26:40;34.80;80.80
11095;DHT22;5601;44.490;11.400;2022-07-01T13:29:09;34.90;81.30
11095;DHT22;5601;44.490;11.400;2022-07-01T13:31:36;35.10;80.90
11095;DHT22;5601;44.490;11.400;2022-07-01T13:34:04;35.10;80.50
11095;DHT22;5601;44.490;11.400;2022-07-01T13:36:32;34.90;80.60
11095;DHT22;5601;44.490;11.400;2022-07-01T13:38:59;34.70;80.60
11095;DHT22;5601;44.490;11.400;2022-07-01T13:41:27;34.60;80.90
11095;DHT22;5601;44.490;11.400;2022-07-01T13:43:55;34.70;80.40
11095;DHT22;5601;44.490;11.400;2022-07-01T13:46:24;34.90;80.10
11095;DHT22;5601;44.490;11.400;2022-07-01T13:48:52;35.00;80.90
11095;DHT22;5601;44.490;11.400;2022-07-01T13:51:19;35.00;79.60
11095;DHT22;5601;44.490;11.400;2022-07-01T13:53:46;35.00;81.10
11095;DHT22;5601;44.490;11.400;2022-07-01T13:56:14;35.20;81.30
11095;DHT22;5601;44.490;11.400;2022-07-01T13:58:42;35.30;81.80
11095;DHT22;5601;44.490;11.400;2022-07-01T14:01:09;35.40;81.90
11095;DHT22;5601;44.490;11.400;2022-07-01T14:03:38;35.50;81.00
11095;DHT22;5601;44.490;11.400;2022-07-01T14:06:05;35.50;81.40
11095;DHT22;5601;44.490;11.400;2022-07-01T14:08:32;35.60;81.60
11095;DHT22;5601;44.490;11.400;2022-07-01T14:11:00;35.60;81.90
11095;DHT22;5601;44.490;11.400;2022-07-01T14:13:28;35.50;81.20
11095;DHT22;5601;44.490;11.400;2022-07-01T14:15:56;35.40;80.70
11095;DHT22;5601;44.490;11.400;2022-07-01T14:18:23;35.30;80.10
11095;DHT22;5601;44.490;11.400;2022-07-01T14:20:52;35.20;80.80
11095;DHT22;5601;44.490;11.400;2022-07-01T14:23:19;35.10;81.50
11095;DHT22;5601;44.490;11.400;2022-07-01T14:25:47;35.30;81.20
11095;DHT22;5601;44.490;11.400;2022-07-01T14:28:14;35.30;80.70
11095;DHT22;5601;44.490;11.400;2022-07-01T14:30:42;35.30;80.60
11095;DHT22;5601;44.490;11.400;2022-07-01T14:33:09;35.20;80.90
11095;DHT22;5601;44.490;11.400;2022-07-01T14:35:37;35.20;80.30
11095;DHT22;5601;44.490;11.400;2022-07-01T14:38:06;35.20;80.10
11095;DHT22;5601;44.490;11.400;2022-07-01T14:40:36;35.10;80.20
11095;DHT22;5601;44.490;11.400;2022-07-01T14:43:03;35.20;80.60
11095;DHT22;5601;44.490;11.400;2022-07-01T14:45:31;35.30;80.40
11095;DHT22;5601;44.490;11.400;2022-07-01T14:47:59;35.20;80.40
11095;DHT22;5601;44.490;11.400;2022-07-01T14:50:29;35.20;80.50
11095;DHT22;5601;44.490;11.400;2022-07-01T14:52:59;35.10;80.70
11095;DHT22;5601;44.490;11.400;2022-07-01T14:55:29;35.00;81.10
11095;DHT22;5601;44.490;11.400;2022-07-01T14:57:57;34.90;81.30
11095;DHT22;5601;44.490;11.400;2022-07-01T15:00:25;34.90;81.40
11095;DHT22;5601;44.490;11.400;2022-07-01T15:02:52;34.90;81.80
11095;DHT22;5601;44.490;11.400;2022-07-01T15:05:21;34.90;81.40
11095;DHT22;5601;44.490;11.400;2022-07-01T15:07:48;34.90;81.70
11095;DHT22;5601;44.490;11.400;2022-07-01T15:10:16;34.80;81.70
11095;DHT22;5601;44.490;11.400;2022-07-01T15:12:45;34.90;82.70
11095;DHT22;5601;44.490;11.400;2022-07-01T15:15:12;35.00;82.20
11095;DHT22;5601;44.490;11.400;2022-07-01T15:17:43;35.10;82.70
11095;DHT22;5601;44.490;11.400;2022-07-01T15:20:11;35.10;82.60
11095;DHT22;5601;44.490;11.400;2022-07-01T15:22:39;35.10;83.20
11095;DHT22;5601;44.490;11.400;2022-07-01T15:25:08;35.10;82.60
11095;DHT22;5601;44.490;11.400;2022-07-01T15:27:36;34.80;83.00
11095;DHT22;5601;44.490;11.400;2022-07-01T15:30:08;34.80;83.30
11095;DHT22;5601;44.490;11.400;2022-07-01T15:32:36;34.90;83.80
11095;DHT22;5601;44.490;11.400;2022-07-01T15:35:03;34.90;83.40
11095;DHT22;5601;44.490;11.400;2022-07-01T15:37:31;34.80;83.40
11095;DHT22;5601;44.490;11.400;2022-07-01T15:39:59;34.90;83.40
11095;DHT22;5601;44.490;11.400;2022-07-01T15:42:26;34.80;83.60
11095;DHT22;5601;44.490;11.400;2022-07-01T15:44:54;34.70;83.40
11095;DHT22;5601;44.490;11.400;2022-07-01T15:47:24;34.70;83.80
11095;DHT22;5601;44.490;11.400;2022-07-01T15:50:09;34.70;83.40
11095;DHT22;5601;44.490;11.400;2022-07-01T15:52:36;34.60;83.70
11095;DHT22;5601;44.490;11.400;2022-07-01T15:55:08;34.60;83.70
11095;DHT22;5601;44.490;11.400;2022-07-01T15:57:36;34.70;84.20
11095;DHT22;5601;44.490;11.400;2022-07-01T16:00:03;34.80;84.30
11095;DHT22;5601;44.490;11.400;2022-07-01T16:02:32;34.90;84.20
11095;DHT22;5601;44.490;11.400;2022-07-01T16:05:00;35.00;83.00
11095;DHT22;5601;44.490;11.400;2022-07-01T16:07:30;34.70;83.20
11095;DHT22;5601;44.490;11.400;2022-07-01T16:10:02;34.60;84.20
11095;DHT22;5601;44.490;11.400;2022-07-01T16:12:30;34.50;83.40
11095;DHT22;5601;44.490;11.400;2022-07-01T16:14:59;34.40;83.20
11095;DHT22;5601;44.490;11.400;2022-07-01T16:17:28;34.40;84.10
11095;DHT22;5601;44.490;11.400;2022-07-01T16:20:02;34.40;83.50
11095;DHT22;5601;44.490;11.400;2022-07-01T16:22:31;34.40;83.30
11095;DHT22;5601;44.490;11.400;2022-07-01T16:25:02;34.30;84.00
11095;DHT22;5601;44.490;11.400;2022-07-01T16:27:31;34.20;83.90
11095;DHT22;5601;44.490;11.400;2022-07-01T16:29:59;34.20;84.10
11095;DHT22;5601;44.490;11.400;2022-07-01T16:32:28;34.10;84.30
11095;DHT22;5601;44.490;11.400;2022-07-01T16:34:56;34.10;84.60
11095;DHT22;5601;44.490;11.400;2022-07-01T16:37:28;34.20;84.60
11095;DHT22;5601;44.490;11.400;2022-07-01T16:40:02;34.10;84.20
11095;DHT22;5601;44.490;11.400;2022-07-01T16:42:30;34.00;84.20
11095;DHT22;5601;44.490;11.400;2022-07-01T16:44:59;33.90;84.10
11095;DHT22;5601;44.490;11.400;2022-07-01T16:47:29;33.90;84.50
11095;DHT22;5601;44.490;11.400;2022-07-01T16:49:58;33.90;84.60
11095;DHT22;5601;44.490;11.400;2022-07-01T16:52:34;33.90;84.40
11095;DHT22;5601;44.490;11.400;2022-07-01T16:55:06;33.80;84.50
11095;DHT22;5601;44.490;11.400;2022-07-01T16:57:36;33.80;84.40
11095;DHT22;5601;44.490;11.400;2022-07-01T17:00:07;33.80;84.30
11095;DHT22;5601;44.490;11.400;2022-07-01T17:02:37;33.80;83.80
11095;DHT22;5601;44.490;11.400;2022-07-01T17:05:06;33.80;85.20
11095;DHT22;5601;44.490;11.400;2022-07-01T17:07:35;33.70;84.10
11095;DHT22;5601;44.490;11.400;2022-07-01T17:10:03;33.60;83.90
11095;DHT22;5601;44.490;11.400;2022-07-01T17:12:32;33.50;84.90
11095;DHT22;5601;44.490;11.400;2022-07-01T17:15:00;33.40;84.40
11095;DHT22;5601;44.490;11.400;2022-07-01T17:17:28;33.30;84.40
11095;DHT22;5601;44.490;11.400;2022-07-01T17:19:56;33.20;84.50
11095;DHT22;5601;44.490;11.400;2022-07-01T17:22:32;33.20;84.70
11095;DHT22;5601;44.490;11.400;2022-07-01T17:25:08;33.20;85.10
11095;DHT22;5601;44.490;11.400;2022-07-01T17:27:51;33.20;84.70
11095;DHT22;5601;44.490;11.400;2022-07-01T17:30:22;33.10;85.00
11095;DHT22;5601;44.490;11.400;2022-07-01T17:32:55;33.00;85.00
11095;DHT22;5601;44.490;11.400;2022-07-01T17:35:23;33.00;85.30
11095;DHT22;5601;44.490;11.400;2022-07-01T17:37:54;32.90;85.30
11095;DHT22;5601;44.490;11.400;2022-07-01T17:40:26;32.90;85.60
11095;DHT22;5601;44.490;11.400;2022-07-01T17:42:58;32.90;85.40
11095;DHT22;5601;44.490;11.400;2022-07-01T17:45:28;32.80;85.70
11095;DHT22;5601;44.490;11.400;2022-07-01T17:47:58;32.70;85.80
11095;DHT22;5601;44.490;11.400;2022-07-01T17:50:27;32.70;86.10
11095;DHT22;5601;44.490;11.400;2022-07-01T17:52:57;32.70;86.30
11095;DHT22;5601;44.490;11.400;2022-07-01T17:55:28;32.60;86.20
11095;DHT22;5601;44.490;11.400;2022-07-01T17:57:58;32.50;86.40
11095;DHT22;5601;44.490;11.400;2022-07-01T18:00:26;32.50;86.70
11095;DHT22;5601;44.490;11.400;2022-07-01T18:02:56;32.50;86.60
11095;DHT22;5601;44.490;11.400;2022-07-01T18:05:25;32.50;86.70
11095;DHT22;5601;44.490;11.400;2022-07-01T18:07:56;32.50;86.80
11095;DHT22;5601;44.490;11.400;2022-07-01T18:10:28;32.40;86.30
11095;DHT22;5601;44.490;11.400;2022-07-01T18:13:01;32.40;86.30
11095;DHT22;5601;44.490;11.400;2022-07-01T18:15:34;32.30;86.40
11095;DHT22;5601;44.490;11.400;2022-07-01T18:18:02;32.30;86.70
11095;DHT22;5601;44.490;11.400;2022-07-01T18:20:37;32.30;86.70
11095;DHT22;5601;44.490;11.400;2022-07-01T18:23:09;32.30;86.80
11095;DHT22;5601;44.490;11.400;2022-07-01T18:25:42;32.50;86.80
11095;DHT22;5601;44.490;11.400;2022-07-01T18:28:13;32.70;86.80
11095;DHT22;5601;44.490;11.400;2022-07-01T18:30:43;32.70;86.80
11095;DHT22;5601;44.490;11.400;2022-07-01T18:33:13;32.80;86.80
11095;DHT22;5601;44.490;11.400;2022-07-01T18:35:41;32.80;86.80
11095;DHT22;5601;44.490;11.400;2022-07-01T18:38:09;32.70;86.80
11095;DHT22;5601;44.490;11.400;2022-07-01T18:40:37;32.50;87.20
11095;DHT22;5601;44.490;11.400;2022-07-01T18:43:07;32.30;87.30
11095;DHT22;5601;44.490;11.400;2022-07-01T18:45:35;32.30;87.60
11095;DHT22;5601;44.490;11.400;2022-07-01T18:48:04;32.10;87.70
11095;DHT22;5601;44.490;11.400;2022-07-01T18:50:32;31.90;88.00
11095;DHT22;5601;44.490;11.400;2022-07-01T18:53:00;31.90;89.00
11095;DHT22;5601;44.490;11.400;2022-07-01T18:55:29;31.80;89.60
11095;DHT22;5601;44.490;11.400;2022-07-01T18:57:57;31.60;90.30
11095;DHT22;5601;44.490;11.400;2022-07-01T19:00:27;31.60;90.80
11095;DHT22;5601;44.490;11.400;2022-07-01T19:02:57;31.50;91.80
11095;DHT22;5601;44.490;11.400;2022-07-01T19:05:24;31.40;92.40
11095;DHT22;5601;44.490;11.400;2022-07-01T19:07:51;31.30;93.10
11095;DHT22;5601;44.490;11.400;2022-07-01T19:10:18;31.20;94.00
11095;DHT22;5601;44.490;11.400;2022-07-01T19:12:46;31.10;94.70
11095;DHT22;5601;44.490;11.400;2022-07-01T19:15:14;31.00;94.90
11095;DHT22;5601;44.490;11.400;2022-07-01T19:17:43;30.90;95.30
11095;DHT22;5601;44.490;11.400;2022-07-01T19:20:12;30.80;95.50
11095;DHT22;5601;44.490;11.400;2022-07-01T19:22:39;30.70;95.60
11095;DHT22;5601;44.490;11.400;2022-07-01T19:25:09;30.60;95.60
11095;DHT22;5601;44.490;11.400;2022-07-01T19:27:36;30.60;95.70
11095;DHT22;5601;44.490;11.400;2022-07-01T19:30:04;30.50;95.80
11095;DHT22;5601;44.490;11.400;2022-07-01T19:32:32;30.40;95.90
11095;DHT22;5601;44.490;11.400;2022-07-01T19:35:00;30.40;96.10
11095;DHT22;5601;44.490;11.400;2022-07-01T19:37:28;30.40;96.20
11095;DHT22;5601;44.490;11.400;2022-07-01T19:39:55;30.30;96.40
11095;DHT22;5601;44.490;11.400;2022-07-01T19:42:22;30.30;96.60
11095;DHT22;5601;44.490;11.400;2022-07-01T19:44:50;30.20;96.70
11095;DHT22;5601;44.490;11.400;2022-07-01T19:47:18;30.10;96.80
11095;DHT22;5601;44.490;11.400;2022-07-01T19:49:45;30.10;96.90
11095;DHT22;5601;44.490;11.400;2022-07-01T19:52:14;30.10;97.10
11095;DHT22;5601;44.490;11.400;2022-07-01T19:54:42;30.00;97.20
11095;DHT22;5601;44.490;11.400;2022-07-01T19:57:09;30.00;97.20
11095;DHT22;5601;44.490;11.400;2022-07-01T19:59:37;30.00;97.40
11095;DHT22;5601;44.490;11.400;2022-07-01T20:02:05;29.90;97.50
11095;DHT22;5601;44.490;11.400;2022-07-01T20:04:33;29.90;97.50
11095;DHT22;5601;44.490;11.400;2022-07-01T20:07:02;29.90;97.50
11095;DHT22;5601;44.490;11.400;2022-07-01T20:09:31;29.80;97.50
11095;DHT22;5601;44.490;11.400;2022-07-01T20:11:59;29.80;97.50
11095;DHT22;5601;44.490;11.400;2022-07-01T20:14:26;29.70;97.00
11095;DHT22;5601;44.490;11.400;2022-07-01T20:16:53;29.70;96.90
11095;DHT22;5601;44.490;11.400;2022-07-01T20:19:21;29.60;96.70
11095;DHT22;5601;44.490;11.400;2022-07-01T20:21:49;29.60;96.50
11095;DHT22;5601;44.490;11.400;2022-07-01T20:24:16;29.50;96.30
11095;DHT22;5601;44.490;11.400;2022-07-01T20:26:46;29.50;95.80
11095;DHT22;5601;44.490;11.400;2022-07-01T20:29:13;29.40;95.60
11095;DHT22;5601;44.490;11.400;2022-07-01T20:31:41;29.40;95.50
11095;DHT22;5601;44.490;11.400;2022-07-01T20:34:08;29.30;95.10
11095;DHT22;5601;44.490;11.400;2022-07-01T20:36:36;29.30;94.90
11095;DHT22;5601;44.490;11.400;2022-07-01T20:39:04;29.30;95.10
11095;DHT22;5601;44.490;11.400;2022-07-01T20:41:31;29.20;94.80
11095;DHT22;5601;44.490;11.400;2022-07-01T20:43:59;29.20;94.10
11095;DHT22;5601;44.490;11.400;2022-07-01T20:46:27;29.10;93.70
11095;DHT22;5601;44.490;11.400;2022-07-01T20:48:54;29.10;93.50
11095;DHT22;5601;44.490;11.400;2022-07-01T20:51:21;29.00;93.10
11095;DHT22;5601;44.490;11.400;2022-07-01T20:53:49;29.00;92.80
11095;DHT22;5601;44.490;11.400;2022-07-01T20:56:16;28.90;92.30
11095;DHT22;5601;44.490;11.400;2022-07-01T20:58:44;28.90;92.50
11095;DHT22;5601;44.490;11.400;2022-07-01T21:01:14;28.90;92.30
11095;DHT22;5601;44.490;11.400;2022-07-01T21:03:41;28.90;91.80
11095;DHT22;5601;44.490;11.400;2022-07-01T21:06:09;28.80;91.70
11095;DHT22;5601;44.490;11.400;2022-07-01T21:08:36;28.80;91.80
11095;DHT22;5601;44.490;11.400;2022-07-01T21:11:04;28.70;91.80
11095;DHT22;5601;44.490;11.400;2022-07-01T21:13:31;28.60;92.00
11095;DHT22;5601;44.490;11.400;2022-07-01T21:15:59;28.50;91.40
11095;DHT22;5601;44.490;11.400;2022-07-01T21:18:28;28.40;91.20
11095;DHT22;5601;44.490;11.400;2022-07-01T21:20:55;28.30;91.50
11095;DHT22;5601;44.490;11.400;2022-07-01T21:23:23;28.30;92.60
11095;DHT22;5601;44.490;11.400;2022-07-01T21:25:50;28.20;93.30
11095;DHT22;5601;44.490;11.400;2022-07-01T21:28:17;28.20;93.30
11095;DHT22;5601;44.490;11.400;2022-07-01T21:30:46;28.20;93.10
11095;DHT22;5601;44.490;11.400;2022-07-01T21:33:13;28.20;93.00
11095;DHT22;5601;44.490;11.400;2022-07-01T21:35:42;28.20;93.20
11095;DHT22;5601;44.490;11.400;2022-07-01T21:38:10;28.20;92.80
11095;DHT22;5601;44.490;11.400;2022-07-01T21:40:38;28.10;92.50
11095;DHT22;5601;44.490;11.400;2022-07-01T21:43:07;28.10;92.10
11095;DHT22;5601;44.490;11.400;2022-07-01T21:45:36;28.10;91.80
11095;DHT22;5601;44.490;11.400;2022-07-01T21:48:06;28.10;91.90